Time;durP1;ratioP1;P1;durP2;ratioP2;P2;SDS_P1;SDS_P2;PMS_P1;PMS_P2;Temp;Humidity;BMP_temperature;BMP_pressure;BME280_temperature;BME280_humidity;BME280_pressure;Samples;Min_cycle;Max_cycle;Signal;HPM_P1;HPM_P2
2021/08/22 00:00:32;;;;;;;9.82;6.70;;;;;;;20.22;82.28;101360.81;5090323;28;20043;-57
2021/08/22 00:03:00;;;;;;;10.77;6.63;;;;;;;20.16;82.46;101351.06;5090022;28;20105;-55
2021/08/22 00:05:29;;;;;;;10.07;6.60;;;;;;;20.14;82.46;101353.31;5090018;28;20048;-59
2021/08/22 00:07:59;;;;;;;9.27;6.15;;;;;;;20.12;82.53;101349.25;5087771;28;20028;-53
2021/08/22 00:10:27;;;;;;;13.65;8.70;;;;;;;20.12;82.77;101349.25;5090295;28;20036;-57
2021/08/22 00:12:54;;;;;;;11.15;7.18;;;;;;;20.15;82.71;101354.94;5089604;28;20036;-56
2021/08/22 00:15:23;;;;;;;10.65;7.35;;;;;;;20.15;82.93;101348.59;5090104;28;20068;-57
2021/08/22 00:17:50;;;;;;;9.80;6.90;;;;;;;20.15;82.69;101343.06;5090010;28;20055;-51
2021/08/22 00:20:20;;;;;;;13.75;10.27;;;;;;;20.11;82.63;101345.66;5088468;28;20068;-56
2021/08/22 00:22:48;;;;;;;13.35;8.85;;;;;;;20.11;82.79;101339.31;4737704;28;10000132;-57
2021/08/22 00:25:18;;;;;;;11.73;7.10;;;;;;;20.11;83.13;101339.31;5092346;28;20048;-56
2021/08/22 00:27:45;;;;;;;10.55;5.97;;;;;;;20.08;82.82;101334.41;5092146;28;20054;-57
2021/08/22 00:30:13;;;;;;;12.98;9.10;;;;;;;20.06;82.66;101340.28;5092297;28;20040;-57
2021/08/22 00:32:40;;;;;;;11.00;6.72;;;;;;;20.07;82.78;101330.81;5091992;28;20066;-57
2021/08/22 00:35:09;;;;;;;8.70;5.75;;;;;;;20.08;82.51;101337.16;5091795;28;20051;-55
2021/08/22 00:37:36;;;;;;;10.18;5.50;;;;;;;20.08;82.69;101331.63;5091646;28;20396;-56
2021/08/22 00:40:04;;;;;;;9.82;5.88;;;;;;;20.07;82.54;101336.38;5092165;28;20036;-56
2021/08/22 00:42:32;;;;;;;9.35;6.53;;;;;;;20.08;82.74;101328.88;5091905;28;20067;-55
2021/08/22 00:45:05;;;;;;;8.60;5.13;;;;;;;20.08;82.44;101329.69;5091860;28;20043;-57
2021/08/22 00:47:41;;;;;;;8.52;5.30;;;;;;;20.10;82.32;101335.72;5092131;28;20128;-57
2021/08/22 00:50:14;;;;;;;8.45;4.82;;;;;;;20.14;81.98;101330.38;5091832;28;20044;-55
2021/08/22 00:52:50;;;;;;;9.98;6.07;;;;;;;20.15;81.47;101332.00;5091816;28;20052;-56
2021/08/22 00:55:19;;;;;;;9.60;6.28;;;;;;;20.16;81.34;101333.63;5091968;28;20047;-57
2021/08/22 00:57:50;;;;;;;7.05;4.45;;;;;;;20.16;81.28;101328.09;5090826;28;20044;-56
2021/08/22 01:00:18;;;;;;;8.27;4.82;;;;;;;20.15;81.57;101332.00;5091591;28;20040;-57
2021/08/22 01:03:16;;;;;;;10.85;4.95;;;;;;;20.13;81.26;101329.56;5090788;28;20383;-57
2021/08/22 01:05:58;;;;;;;8.52;5.07;;;;;;;20.10;81.58;101329.38;5078469;28;20131;-57
2021/08/22 01:08:37;;;;;;;7.25;4.70;;;;;;;20.08;81.53;101321.38;5090631;28;20138;-57
2021/08/22 01:11:24;;;;;;;8.23;4.72;;;;;;;20.09;80.74;101317.50;5092003;28;20040;-57
2021/08/22 01:13:59;;;;;;;7.70;4.80;;;;;;;20.10;80.45;101315.53;5073254;28;20135;-57
2021/08/22 01:16:30;;;;;;;7.75;4.07;;;;;;;20.11;80.66;101319.97;5090250;28;20048;-59
2021/08/22 01:19:01;;;;;;;6.80;4.20;;;;;;;20.05;80.63;101321.22;5090306;28;20119;-57
2021/08/22 01:21:29;;;;;;;6.18;4.03;;;;;;;20.02;80.64;101319.09;5093567;28;20036;-57
2021/08/22 01:24:02;;;;;;;7.40;4.47;;;;;;;20.02;80.59;101321.88;5095487;28;20036;-58
2021/08/22 01:26:34;;;;;;;8.20;4.22;;;;;;;19.99;80.46;101313.06;5095443;28;20040;-58
2021/08/22 01:29:03;;;;;;;5.50;3.67;;;;;;;19.99;80.35;101318.59;5093836;28;20513;-56
2021/08/22 01:31:37;;;;;;;7.13;3.78;;;;;;;20.00;80.28;101313.88;5095211;28;20059;-58
2021/08/22 01:34:07;;;;;;;;;;;;;;;19.98;80.04;101319.72;5094020;28;20124;-58
2021/08/22 01:36:35;;;;;;;8.10;4.03;;;;;;;20.00;80.30;101320.22;5077160;28;19928;-57
2021/08/22 01:39:03;;;;;;;6.70;3.97;;;;;;;19.99;80.04;101317.78;5093566;28;20033;-55
2021/08/22 01:41:31;;;;;;;9.02;5.13;;;;;;;19.93;80.66;101319.88;5095172;28;20102;-58
2021/08/22 01:43:59;;;;;;;7.10;4.63;;;;;;;19.88;80.69;101322.78;5093465;28;20043;-57
2021/08/22 01:46:31;;;;;;;7.03;4.20;;;;;;;19.90;80.10;101319.72;5095008;28;20055;-57
2021/08/22 01:49:00;;;;;;;7.72;4.55;;;;;;;19.87;80.79;101323.13;5094530;28;20048;-58
2021/08/22 01:51:29;;;;;;;7.53;4.72;;;;;;;19.84;80.72;101319.00;5079430;28;20040;-56
2021/08/22 01:54:02;;;;;;;7.75;5.03;;;;;;;19.83;80.95;101314.63;5095022;28;20066;-57
2021/08/22 01:56:31;;;;;;;7.75;5.03;;;;;;;19.83;80.95;101314.63;5093494;28;20036;-58
2021/08/22 01:58:59;;;;;;;7.22;5.10;;;;;;;19.81;81.05;101316.09;5094793;28;20032;-56
2021/08/22 02:01:27;;;;;;;8.90;5.65;;;;;;;19.79;81.11;101320.00;5094618;28;20490;-54
2021/08/22 02:04:17;;;;;;;17.23;6.07;;;;;;;19.80;80.92;101315.28;5092972;28;20040;-56
2021/08/22 02:06:50;;;;;;;7.95;5.68;;;;;;;19.77;81.13;101310.34;5093106;28;20050;-55
2021/08/22 02:09:22;;;;;;;9.45;6.22;;;;;;;19.74;81.05;101316.53;5094454;28;20044;-57
2021/08/22 02:12:17;;;;;;;12.85;6.47;;;;;;;19.74;81.21;101322.88;5093260;28;20047;-59
2021/08/22 02:15:02;;;;;;;11.50;7.03;;;;;;;19.75;80.75;101319.00;5092567;28;20048;-57
2021/08/22 02:17:44;;;;;;;12.32;9.15;;;;;;;19.71;81.56;101314.41;5092588;28;20406;-59
2021/08/22 02:20:12;;;;;;;13.80;10.30;;;;;;;19.66;81.60;101320.84;5094155;28;20036;-60
2021/08/22 02:22:45;;;;;;;11.93;9.05;;;;;;;19.64;81.99;101316.78;5094126;28;20062;-58
2021/08/22 02:25:14;;;;;;;15.63;11.57;;;;;;;19.63;82.24;101320.69;5094230;28;20054;-60
2021/08/22 02:27:42;;;;;;;15.23;10.25;;;;;;;19.60;82.09;101322.13;5094154;28;20055;-58
2021/08/22 02:30:10;;;;;;;17.98;13.48;;;;;;;19.56;82.19;101327.47;5094226;28;20409;-60
2021/08/22 02:32:38;;;;;;;15.65;12.45;;;;;;;19.54;82.49;101329.72;5093495;28;20032;-60
2021/08/22 02:35:06;;;;;;;19.15;13.43;;;;;;;19.53;82.27;101330.88;5094053;28;20097;-59
2021/08/22 02:37:34;;;;;;;17.20;13.80;;;;;;;19.50;82.27;101325.97;5093702;28;20043;-60
2021/08/22 02:40:02;;;;;;;20.27;13.50;;;;;;;19.52;82.28;101326.47;5093961;28;20036;-60
2021/08/22 02:42:30;;;;;;;21.52;16.15;;;;;;;19.53;82.30;101339.16;5093732;28;20135;-59
2021/08/22 02:44:57;;;;;;;18.10;15.07;;;;;;;19.53;82.19;101339.16;5092584;28;20066;-57
2021/08/22 02:47:26;;;;;;;15.48;12.35;;;;;;;19.57;82.10;101345.69;5093112;28;20044;-60
2021/08/22 02:49:54;;;;;;;19.83;16.15;;;;;;;19.54;82.13;101340.78;5093701;28;20093;-58
2021/08/22 02:52:22;;;;;;;20.48;15.65;;;;;;;19.53;82.14;101335.56;5093885;28;20051;-56
2021/08/22 02:54:49;;;;;;;23.88;18.65;;;;;;;19.50;82.11;101339.78;5093503;28;20036;-60
2021/08/22 02:57:18;;;;;;;22.35;17.48;;;;;;;19.47;82.28;101334.09;5093479;28;20048;-59
2021/08/22 02:59:46;;;;;;;22.10;17.88;;;;;;;19.45;82.54;101334.38;5093399;28;20181;-59
2021/08/22 03:02:14;;;;;;;25.13;19.27;;;;;;;19.47;82.34;101334.09;5093304;28;20043;-59
2021/08/22 03:04:41;;;;;;;23.98;18.30;;;;;;;19.43;82.37;101328.34;5093188;28;20422;-60
2021/08/22 03:07:09;;;;;;;24.35;17.10;;;;;;;19.43;82.62;101324.78;5093372;28;20048;-59
2021/08/22 03:09:36;;;;;;;26.10;19.98;;;;;;;19.44;82.56;101329.19;5093245;28;20051;-60
2021/08/22 03:12:05;;;;;;;27.70;20.80;;;;;;;19.44;82.66;101321.72;5093134;28;20043;-59
2021/08/22 03:14:33;;;;;;;23.63;19.70;;;;;;;19.45;82.45;101319.75;5092732;28;20056;-59
2021/08/22 03:17:00;;;;;;;29.73;23.45;;;;;;;19.43;82.52;101322.81;5092515;28;20411;-59
2021/08/22 03:19:28;;;;;;;22.90;19.30;;;;;;;19.41;82.51;101318.75;5093075;28;20044;-57
2021/08/22 03:21:55;;;;;;;22.60;17.48;;;;;;;19.36;82.78;101327.97;5092761;28;20043;-59
2021/08/22 03:24:23;;;;;;;29.15;23.05;;;;;;;19.40;82.30;101314.38;5093285;28;20059;-59
2021/08/22 03:26:50;;;;;;;22.40;19.17;;;;;;;19.39;82.62;101316.31;5093278;28;20040;-59
2021/08/22 03:29:18;;;;;;;29.38;22.40;;;;;;;19.38;82.67;101314.69;5092364;28;20040;-59
2021/08/22 03:31:45;;;;;;;27.10;21.65;;;;;;;19.38;82.58;101309.16;5092793;28;20048;-59
2021/08/22 03:34:13;;;;;;;29.20;22.20;;;;;;;19.36;82.70;101308.66;5092855;28;20039;-59
2021/08/22 03:36:40;;;;;;;29.48;20.92;;;;;;;19.38;82.56;101314.69;5092713;28;20040;-60
2021/08/22 03:39:08;;;;;;;28.02;21.90;;;;;;;19.38;82.63;101314.69;5092667;28;20044;-59
2021/08/22 03:41:36;;;;;;;23.98;19.25;;;;;;;19.39;82.19;101310.78;5092678;28;20058;-59
2021/08/22 03:44:04;;;;;;;26.15;19.90;;;;;;;19.40;82.22;101304.13;5091711;28;20058;-59
2021/08/22 03:46:31;;;;;;;29.30;23.40;;;;;;;19.37;82.53;101307.53;5092400;28;20123;-60
2021/08/22 03:48:59;;;;;;;29.20;21.55;;;;;;;19.36;82.61;101311.41;5092824;28;20044;-59
2021/08/22 03:51:27;;;;;;;32.90;24.77;;;;;;;19.37;82.58;101313.88;5092566;28;20063;-58
2021/08/22 03:53:54;;;;;;;28.02;21.75;;;;;;;19.36;82.53;101311.41;5092546;28;20038;-58
2021/08/22 03:56:22;;;;;;;22.63;17.02;;;;;;;19.37;82.15;101308.34;5092278;28;20039;-60
2021/08/22 03:58:49;;;;;;;27.98;21.02;;;;;;;19.38;82.04;101309.16;5092034;28;20040;-59
2021/08/22 04:01:17;;;;;;;29.13;21.92;;;;;;;19.39;82.08;101321.84;5092125;28;20036;-55
2021/08/22 04:03:51;;;;;;;31.85;25.30;;;;;;;19.36;82.01;101316.94;5091329;28;20119;-59
2021/08/22 04:06:48;;;;;;;32.15;25.15;;;;;;;19.31;82.07;101320.66;5090958;28;20048;-58
2021/08/22 04:09:17;;;;;;;36.08;28.13;;;;;;;19.28;82.06;101320.47;5092472;28;20040;-59
2021/08/22 04:11:46;;;;;;;39.63;30.42;;;;;;;19.27;82.15;101324.38;5092499;28;20029;-54
2021/08/22 04:14:14;;;;;;;30.85;24.02;;;;;;;19.24;82.16;101316.69;5091446;28;20055;-58
2021/08/22 04:16:42;;;;;;;27.70;21.27;;;;;;;19.24;82.10;101322.22;5092332;28;20044;-59
2021/08/22 04:19:10;;;;;;;39.58;28.88;;;;;;;19.27;81.99;101318.84;5092309;28;20164;-55
2021/08/22 04:21:39;;;;;;;36.55;28.98;;;;;;;19.25;82.08;101323.88;5092354;28;20427;-56
2021/08/22 04:24:07;;;;;;;35.30;27.15;;;;;;;19.22;82.17;101319.78;5092278;28;20482;-55
2021/08/22 04:26:35;;;;;;;39.05;29.48;;;;;;;19.25;81.88;101329.41;5092174;28;20037;-56
2021/08/22 04:29:02;;;;;;;39.28;29.40;;;;;;;19.21;81.85;101326.44;5091641;28;20036;-56
2021/08/22 04:31:30;;;;;;;37.65;26.67;;;;;;;19.21;81.75;101333.91;5092426;28;20036;-56
2021/08/22 04:33:58;;;;;;;24.95;18.55;;;;;;;19.15;81.82;101322.97;5092267;28;20055;-58
2021/08/22 04:36:25;;;;;;;40.97;29.50;;;;;;;19.14;81.82;101337.91;5091955;28;20058;-57
2021/08/22 04:38:53;;;;;;;40.83;29.92;;;;;;;19.12;81.81;101331.91;5092135;28;20040;-58
2021/08/22 04:41:21;;;;;;;37.88;28.08;;;;;;;19.12;81.67;101336.59;5092081;28;20039;-56
2021/08/22 04:43:53;;;;;;;38.55;30.02;;;;;;;19.09;81.81;101335.28;5091651;28;20051;-57
2021/08/22 04:46:21;;;;;;;40.25;28.75;;;;;;;19.07;81.59;101333.97;5092067;28;20051;-57
2021/08/22 04:48:49;;;;;;;33.47;26.17;;;;;;;19.07;81.69;101332.03;5092248;28;20113;-56
2021/08/22 04:51:17;;;;;;;36.15;27.13;;;;;;;19.12;81.64;101334.66;5091834;28;20097;-55
2021/08/22 04:53:44;;;;;;;35.25;27.38;;;;;;;19.13;81.54;101341.00;5091964;28;20052;-56
2021/08/22 04:56:12;;;;;;;33.60;26.95;;;;;;;19.11;81.47;101337.72;5093820;28;20375;-53
2021/08/22 04:58:40;;;;;;;36.55;26.92;;;;;;;19.10;81.61;101347.16;5095718;28;20051;-55
2021/08/22 05:01:07;;;;;;;31.25;23.88;;;;;;;19.05;81.41;101339.81;5095652;28;20093;-54
2021/08/22 05:03:35;;;;;;;27.67;22.63;;;;;;;19.01;81.67;101349.84;5095934;28;20070;-58
2021/08/22 05:06:03;;;;;;;29.10;21.85;;;;;;;19.04;81.50;101343.69;5095577;28;20486;-55
2021/08/22 05:08:32;;;;;;;35.70;28.48;;;;;;;19.06;81.42;101344.19;5094752;28;20469;-60
2021/08/22 05:10:59;;;;;;;34.60;27.17;;;;;;;19.03;81.56;101347.59;5095526;28;20032;-58
2021/08/22 05:13:27;;;;;;;27.85;21.75;;;;;;;19.02;81.63;101351.47;5094881;28;20052;-58
2021/08/22 05:15:55;;;;;;;34.70;27.27;;;;;;;19.02;81.59;101351.47;5095621;28;20048;-58
2021/08/22 05:18:23;;;;;;;33.38;25.17;;;;;;;19.01;81.46;101352.59;5095167;28;20044;-59
2021/08/22 05:20:52;;;;;;;32.22;24.50;;;;;;;19.01;81.36;101344.31;5095203;28;20039;-59
2021/08/22 05:23:20;;;;;;;30.38;24.73;;;;;;;19.02;81.10;101345.94;5094861;28;20040;-57
2021/08/22 05:25:47;;;;;;;23.45;18.75;;;;;;;19.03;81.26;101339.31;5095137;28;20040;-56
2021/08/22 05:28:15;;;;;;;31.25;22.13;;;;;;;19.04;81.01;101357.50;5095146;28;20043;-58
2021/08/22 05:30:42;;;;;;;24.25;16.98;;;;;;;19.08;80.75;101350.22;5095270;28;20040;-55
2021/08/22 05:33:10;;;;;;;22.85;19.98;;;;;;;19.07;80.54;101354.13;5095177;28;20047;-55
2021/08/22 05:35:38;;;;;;;22.67;16.38;;;;;;;19.04;80.47;101353.94;5095083;28;20401;-55
2021/08/22 05:38:08;;;;;;;22.58;17.00;;;;;;;19.00;80.82;101356.50;5095314;28;20040;-55
2021/08/22 05:40:36;;;;;;;20.75;14.93;;;;;;;19.01;80.66;101355.38;5094589;28;20036;-59
2021/08/22 05:43:04;;;;;;;18.85;13.68;;;;;;;19.04;80.61;101359.44;5094967;28;20051;-58
2021/08/22 05:45:32;;;;;;;26.60;19.80;;;;;;;19.04;80.33;101357.50;5095216;28;20090;-59
2021/08/22 05:47:59;;;;;;;19.00;15.10;;;;;;;19.01;80.38;101360.88;5093779;28;20044;-58
2021/08/22 05:50:27;;;;;;;25.55;18.52;;;;;;;19.03;80.47;101364.16;5094057;28;20040;-55
2021/08/22 05:52:54;;;;;;;27.52;19.38;;;;;;;18.98;80.56;101356.00;5093955;28;20516;-56
2021/08/22 05:55:23;;;;;;;25.70;19.33;;;;;;;19.05;80.45;101361.91;5094324;28;20130;-58
2021/08/22 05:57:50;;;;;;;23.30;18.15;;;;;;;19.09;80.43;101360.13;5093959;28;20402;-56
2021/08/22 06:00:18;;;;;;;33.28;24.48;;;;;;;19.10;80.13;101361.78;5094206;28;20040;-57
2021/08/22 06:02:46;;;;;;;25.52;20.95;;;;;;;19.04;80.49;101365.78;5093876;28;20036;-54
2021/08/22 06:05:13;;;;;;;25.88;20.15;;;;;;;19.02;80.58;101368.03;5094328;28;20039;-53
2021/08/22 06:07:41;;;;;;;29.00;23.77;;;;;;;19.01;80.63;101373.88;5094120;28;20153;-52
2021/08/22 06:10:09;;;;;;;25.08;18.25;;;;;;;18.99;80.58;101368.66;5093753;28;20044;-51
2021/08/22 06:12:36;;;;;;;24.52;18.98;;;;;;;19.03;80.52;101366.91;5094203;28;20445;-51
2021/08/22 06:15:04;;;;;;;15.63;12.23;;;;;;;19.08;80.52;101371.50;5092831;28;20109;-50
2021/08/22 06:17:32;;;;;;;25.33;19.23;;;;;;;19.14;80.30;101373.81;5094468;28;20047;-56
2021/08/22 06:19:59;;;;;;;25.27;20.05;;;;;;;19.15;80.34;101369.94;5094301;28;20486;-54
2021/08/22 06:22:27;;;;;;;22.58;17.42;;;;;;;19.13;80.25;101369.44;5094250;28;20116;-54
2021/08/22 06:24:55;;;;;;;27.33;20.60;;;;;;;19.11;80.49;101368.94;5093780;28;20040;-55
2021/08/22 06:27:22;;;;;;;27.17;22.77;;;;;;;19.12;80.40;101372.50;5093949;28;20053;-57
2021/08/22 06:29:50;;;;;;;27.90;22.40;;;;;;;19.15;80.42;101378.22;5094227;28;20036;-57
2021/08/22 06:32:18;;;;;;;32.10;24.58;;;;;;;19.24;80.16;101369.19;5094016;28;20037;-57
2021/08/22 06:34:45;;;;;;;25.42;20.17;;;;;;;19.22;80.07;101376.97;5094056;28;20436;-54
2021/08/22 06:37:13;;;;;;;21.85;18.02;;;;;;;19.22;79.89;101371.44;5093666;28;20036;-56
2021/08/22 06:39:42;;;;;;;27.70;22.98;;;;;;;19.18;80.02;101375.97;5093602;28;20046;-51
2021/08/22 06:42:09;;;;;;;33.05;27.23;;;;;;;19.11;80.36;101366.16;5093847;28;20086;-54
2021/08/22 06:44:39;;;;;;;23.05;18.95;;;;;;;19.06;80.13;101363.53;5093556;28;20101;-53
2021/08/22 06:47:12;;;;;;;23.88;19.88;;;;;;;19.05;79.88;101367.44;5093484;28;20040;-51
2021/08/22 06:49:40;;;;;;;22.75;17.52;;;;;;;19.08;79.75;101366.81;5093583;28;20040;-53
2021/08/22 06:52:08;;;;;;;32.45;20.48;;;;;;;19.02;80.00;101368.03;5093497;28;20044;-57
2021/08/22 06:54:38;;;;;;;22.52;18.95;;;;;;;18.97;80.21;101365.41;5092902;28;20399;-53
2021/08/22 06:57:05;;;;;;;25.65;19.50;;;;;;;18.96;80.32;101366.53;5093282;28;20044;-56
2021/08/22 06:59:33;;;;;;;24.02;17.60;;;;;;;19.00;80.07;101370.31;5093519;28;20047;-55
2021/08/22 07:02:01;;;;;;;21.55;15.25;;;;;;;19.02;79.55;101373.56;5093567;28;20136;-54
2021/08/22 07:04:29;;;;;;;21.08;14.80;;;;;;;18.97;79.90;101378.38;5092992;28;20070;-53
2021/08/22 07:06:56;;;;;;;20.95;15.18;;;;;;;18.98;80.18;101377.25;5093145;28;20040;-50
2021/08/22 07:09:24;;;;;;;22.27;15.93;;;;;;;19.04;80.12;101376.81;5092897;28;20036;-50
2021/08/22 07:11:52;;;;;;;21.00;14.63;;;;;;;19.07;80.13;101387.28;5093127;28;20071;-52
2021/08/22 07:14:19;;;;;;;19.48;11.57;;;;;;;19.12;79.80;101378.88;5091531;28;20530;-49
2021/08/22 07:16:49;;;;;;;19.10;12.50;;;;;;;19.18;79.51;101382.31;5091517;28;20048;-56
2021/08/22 07:19:16;;;;;;;19.23;13.38;;;;;;;19.19;79.20;101377.59;5079327;28;20131;-54
2021/08/22 07:21:44;;;;;;;19.08;12.80;;;;;;;19.19;79.50;101381.16;5092600;28;20463;-55
2021/08/22 07:24:12;;;;;;;20.38;12.30;;;;;;;19.16;79.75;101385.38;5092176;28;20113;-54
2021/08/22 07:26:39;;;;;;;21.90;13.18;;;;;;;19.20;79.79;101391.13;5092412;28;20040;-55
2021/08/22 07:29:07;;;;;;;17.00;12.52;;;;;;;19.22;79.61;101390.78;5090969;28;20040;-49
2021/08/22 07:31:34;;;;;;;17.50;12.32;;;;;;;19.18;79.67;101389.78;5092131;28;20059;-54
2021/08/22 07:34:02;;;;;;;28.75;12.60;;;;;;;19.18;79.85;101387.84;5092704;28;20044;-53
2021/08/22 07:36:29;;;;;;;22.95;13.60;;;;;;;19.25;79.24;101390.19;5090873;28;20383;-51
2021/08/22 07:38:57;;;;;;;21.58;14.02;;;;;;;19.24;79.59;101381.06;5091962;28;20051;-56
2021/08/22 07:41:25;;;;;;;28.88;13.65;;;;;;;19.25;79.87;101381.88;5091876;28;20111;-51
2021/08/22 07:43:52;;;;;;;21.33;14.07;;;;;;;19.27;80.28;101391.50;5092312;28;20063;-52
2021/08/22 07:46:20;;;;;;;21.98;14.15;;;;;;;19.27;80.02;101383.22;5092345;28;20036;-49
2021/08/22 07:48:47;;;;;;;25.88;15.05;;;;;;;19.37;79.22;101395.97;5092507;28;20043;-52
2021/08/22 07:51:15;;;;;;;20.83;13.55;;;;;;;19.34;79.46;101386.34;5091732;28;20059;-50
2021/08/22 07:53:43;;;;;;;19.05;12.40;;;;;;;19.27;79.67;101380.44;5092358;28;20123;-53
2021/08/22 07:56:10;;;;;;;37.25;15.10;;;;;;;19.37;79.27;101391.25;5092205;28;20044;-53
2021/08/22 07:58:38;;;;;;;39.78;15.38;;;;;;;19.47;79.11;101384.66;5090861;28;20040;-51
2021/08/22 08:01:05;;;;;;;37.05;15.43;;;;;;;19.54;78.45;101379.50;5092436;28;20044;-48
2021/08/22 08:03:33;;;;;;;20.27;11.55;;;;;;;19.47;78.58;101384.66;5092502;28;20067;-54
2021/08/22 08:06:01;;;;;;;42.92;13.90;;;;;;;19.49;78.27;101387.91;5091847;28;20383;-52
2021/08/22 08:08:29;;;;;;;18.00;11.55;;;;;;;19.54;78.34;101387.78;5087874;28;20044;-52
2021/08/22 08:10:56;;;;;;;17.80;10.68;;;;;;;19.56;78.14;101379.19;5092454;28;20131;-51
2021/08/22 08:13:24;;;;;;;22.42;10.68;;;;;;;19.66;77.25;101397.47;5091533;28;20131;-53
2021/08/22 08:15:51;;;;;;;12.93;8.60;;;;;;;19.64;77.57;101395.00;5091072;28;20047;-53
2021/08/22 08:18:19;;;;;;;18.98;9.07;;;;;;;19.59;77.95;101390.41;5091843;28;20135;-49
2021/08/22 08:20:46;;;;;;;23.75;11.02;;;;;;;19.70;76.73;101396.53;5091484;28;20083;-54
2021/08/22 08:23:14;;;;;;;34.60;13.48;;;;;;;19.80;76.54;101392.69;5092246;28;20046;-51
2021/08/22 08:25:42;;;;;;;37.22;14.02;;;;;;;19.89;76.40;101395.50;5092173;28;20386;-52
2021/08/22 08:28:09;;;;;;;16.75;9.45;;;;;;;19.80;77.48;101389.94;5092199;28;20127;-51
2021/08/22 08:30:38;;;;;;;15.25;9.23;;;;;;;19.80;77.31;101398.22;5094999;28;20044;-53
2021/08/22 08:33:05;;;;;;;16.85;9.05;;;;;;;19.73;77.43;101397.88;5096020;28;20062;-50
2021/08/22 08:35:33;;;;;;;13.27;8.13;;;;;;;19.67;77.84;101396.31;5095559;28;20028;-55
2021/08/22 08:38:09;;;;;;;;;;;;;;;19.72;76.69;101402.59;5096423;28;20048;-51
2021/08/22 08:40:38;;;;;;;21.63;8.30;;;;;;;19.73;76.83;101403.38;5096092;28;19998;-53
2021/08/22 08:43:07;;;;;;;14.10;7.13;;;;;;;19.64;78.38;101410.78;5096109;28;20062;-50
2021/08/22 08:45:46;;;;;;;12.25;6.57;;;;;;;19.55;78.51;101408.78;5094600;28;20048;-53
2021/08/22 08:48:28;;;;;;;9.73;5.75;;;;;;;19.53;78.58;101416.56;5083012;28;20073;-53
2021/08/22 08:51:20;;;;;;;11.43;5.90;;;;;;;19.52;78.39;101414.91;5095625;28;20123;-52
2021/08/22 08:53:52;;;;;;;8.55;5.50;;;;;;;19.44;78.05;101417.63;5095962;28;20047;-52
2021/08/22 08:56:27;;;;;;;12.27;5.15;;;;;;;19.37;78.41;101413.34;5095939;28;20048;-52
2021/08/22 08:58:55;;;;;;;8.95;5.18;;;;;;;19.31;78.77;101408.25;5095848;28;20070;-51
2021/08/22 09:01:23;;;;;;;11.45;5.60;;;;;;;19.26;79.28;101413.91;5094312;28;20044;-52
2021/08/22 09:04:20;;;;;;;8.95;5.60;;;;;;;19.22;79.53;101422.00;5095326;28;20040;-52
2021/08/22 09:07:07;;;;;;;10.88;4.82;;;;;;;19.28;79.85;101420.75;5095419;28;20028;-52
2021/08/22 09:09:55;;;;;;;13.07;6.22;;;;;;;19.38;78.52;101422.44;5095258;28;20043;-53
2021/08/22 09:12:53;;;;;;;7.55;4.75;;;;;;;19.39;78.42;101429.63;5095466;28;20051;-53
2021/08/22 09:15:59;;;;;;;7.32;4.55;;;;;;;19.41;77.52;101421.00;5080504;28;20518;-50
2021/08/22 09:19:02;;;;;;;9.38;4.90;;;;;;;19.44;76.67;101418.44;5094707;28;20544;-51
2021/08/22 09:21:51;;;;;;;5.15;3.65;;;;;;;19.43;76.35;101416.78;5095245;28;20047;-52
2021/08/22 09:24:21;;;;;;;5.70;3.97;;;;;;;19.36;76.68;101420.00;5081439;28;20048;-50
2021/08/22 09:27:01;;;;;;;7.40;4.40;;;;;;;19.34;77.17;101418.69;5095197;28;20032;-50
2021/08/22 09:30:04;;;;;;;7.25;4.38;;;;;;;19.34;77.53;101422.28;5081869;28;20047;-51
2021/08/22 09:33:10;;;;;;;11.07;5.63;;;;;;;19.36;78.18;101425.53;5094876;28;20522;-48
2021/08/22 09:35:59;;;;;;;8.48;5.63;;;;;;;19.35;78.73;101429.41;5094639;28;20044;-51
2021/08/22 09:38:38;;;;;;;9.57;7.50;;;;;;;19.35;78.71;101431.38;5094909;28;20036;-51
2021/08/22 09:41:56;;;;;;;11.88;8.05;;;;;;;19.37;79.11;101429.13;5094065;28;20433;-50
2021/08/22 09:44:47;;;;;;;13.73;10.10;;;;;;;19.36;78.74;101428.31;5094652;28;20516;-52
2021/08/22 09:47:26;;;;;;;13.10;9.65;;;;;;;19.39;79.01;101426.88;5094380;28;20070;-50
2021/08/22 09:50:33;;;;;;;12.00;10.35;;;;;;;19.39;79.27;101428.81;5081706;28;20032;-52
2021/08/22 09:53:38;;;;;;;11.02;8.15;;;;;;;19.43;78.24;101425.09;5094433;28;20490;-51
2021/08/22 09:56:31;;;;;;;12.35;7.80;;;;;;;19.49;77.51;101425.78;5094581;28;20040;-52
2021/08/22 09:59:36;;;;;;;14.55;9.88;;;;;;;19.49;77.32;101432.13;5031823;28;20045;-51
2021/08/22 10:02:17;;;;;;;13.18;8.57;;;;;;;19.48;77.23;101429.69;5031672;28;20049;-53
2021/08/22 10:05:29;;;;;;;12.38;8.68;;;;;;;19.45;77.13;101433.88;5031900;28;20103;-51
2021/08/22 10:08:05;;;;;;;12.10;8.18;;;;;;;19.54;76.59;101442.25;4973060;28;20058;-51
2021/08/22 10:10:35;;;;;;;10.73;6.57;;;;;;;19.60;75.85;101438.22;4973095;28;20053;-53
2021/08/22 10:13:03;;;;;;;10.02;5.28;;;;;;;19.65;75.35;101446.41;4972794;28;20042;-51
2021/08/22 10:15:30;;;;;;;9.60;5.57;;;;;;;19.73;75.27;101431.03;4956622;28;20496;-50
2021/08/22 10:17:58;;;;;;;11.15;6.88;;;;;;;19.80;75.00;101431.41;4972641;28;20506;-48
2021/08/22 10:20:47;;;;;;;11.60;6.53;;;;;;;19.77;75.37;101432.03;4972756;28;20039;-53
2021/08/22 10:23:35;;;;;;;11.38;6.45;;;;;;;19.80;75.55;101431.41;4972999;28;20043;-51
2021/08/22 10:26:03;;;;;;;9.85;5.80;;;;;;;19.83;75.35;101421.66;4973195;28;20043;-52
2021/08/22 10:28:48;;;;;;;9.48;5.10;;;;;;;19.87;74.43;101426.25;4972895;28;20055;-54
2021/08/22 10:31:35;;;;;;;13.00;5.55;;;;;;;19.91;74.08;101416.16;4972505;28;20055;-51
2021/08/22 10:34:13;;;;;;;8.48;4.82;;;;;;;20.04;73.21;101424.72;4972745;28;20042;-51
2021/08/22 10:36:41;;;;;;;11.55;5.45;;;;;;;20.00;73.21;101419.00;4984550;28;20129;-51
2021/08/22 10:39:27;;;;;;;12.80;7.05;;;;;;;20.08;72.72;101409.91;5011529;28;20053;-54
2021/08/22 10:41:56;;;;;;;12.15;6.47;;;;;;;20.09;72.80;101419.84;5055224;28;20077;-53
2021/08/22 10:44:33;;;;;;;15.30;6.70;;;;;;;20.03;73.04;101412.00;5093489;28;20499;-51
2021/08/22 10:47:10;;;;;;;12.68;7.07;;;;;;;19.93;72.93;101411.13;5093490;28;20465;-52
2021/08/22 10:49:53;;;;;;;11.98;7.22;;;;;;;19.95;73.34;101410.84;5092838;28;20402;-55
2021/08/22 10:52:21;;;;;;;11.80;6.70;;;;;;;20.10;73.23;101413.19;5092977;28;20048;-55
2021/08/22 10:55:14;;;;;;;10.80;5.82;;;;;;;20.33;72.74;101405.63;5092685;28;20490;-54
2021/08/22 11:00:30;;;;;;;10.57;6.03;;;;;;;20.26;71.19;101415.53;5093106;28;20043;-55
2021/08/22 11:02:58;;;;;;;9.40;5.10;;;;;;;20.18;71.00;101411.63;5093042;28;20051;-48
2021/08/22 11:05:30;;;;;;;9.23;5.32;;;;;;;20.11;70.88;101408.50;5093139;28;20044;-51
2021/08/22 11:08:20;;;;;;;11.02;6.15;;;;;;;20.06;71.91;101411.38;5093194;28;20059;-48
2021/08/22 11:10:57;;;;;;;11.93;5.72;;;;;;;20.09;71.99;101421.81;5093414;28;20071;-51
2021/08/22 11:13:25;;;;;;;10.57;5.97;;;;;;;20.08;71.82;101417.41;5092411;28;20062;-50
2021/08/22 11:15:53;;;;;;;12.18;7.47;;;;;;;20.12;71.43;101412.88;5092757;28;20028;-51
2021/08/22 11:18:21;;;;;;;8.75;4.60;;;;;;;20.15;70.94;101417.75;5093148;28;20494;-51
2021/08/22 11:20:49;;;;;;;12.23;6.43;;;;;;;20.16;70.30;101419.41;5092716;28;20036;-52
2021/08/22 11:23:17;;;;;;;9.48;5.63;;;;;;;20.15;70.11;101409.47;5093069;28;20491;-52
2021/08/22 11:25:46;;;;;;;10.95;5.63;;;;;;;20.15;70.01;101410.28;5092875;28;20529;-51
2021/08/22 11:28:18;;;;;;;12.75;6.95;;;;;;;20.15;70.03;101413.03;5092571;28;20044;-52
2021/08/22 11:30:47;;;;;;;10.85;6.55;;;;;;;20.13;70.20;101418.09;5092661;28;20505;-53
2021/08/22 11:33:14;;;;;;;7.50;4.43;;;;;;;20.17;71.77;101415.50;5092867;28;20056;-51
2021/08/22 11:35:44;;;;;;;12.05;7.20;;;;;;;20.16;70.49;101409.16;5092480;28;20043;-54
2021/08/22 11:38:13;;;;;;;13.82;6.72;;;;;;;20.17;70.87;101415.50;5092667;28;20039;-51